Time;durP1;ratioP1;P1;durP2;ratioP2;P2;SDS_P1;SDS_P2;PMS_P1;PMS_P2;Temp;Humidity;BMP_temperature;BMP_pressure;BME280_temperature;BME280_humidity;BME280_pressure;Samples;Min_cycle;Max_cycle;Signal;HPM_P1;HPM_P2
2021/12/21 00:00:51;;;;;;;49.03;31.80;;;;;;;;;;5010785;28;20026;-61
2021/12/21 00:03:17;;;;;;;46.67;31.03;;;;;;;;;;5012751;28;20026;-61
2021/12/21 00:05:43;;;;;;;50.27;32.80;;;;;;;;;;5009263;28;20038;-60
2021/12/21 00:08:12;;;;;;;47.17;31.90;;;;;;;;;;5010786;28;20045;-61
2021/12/21 00:10:39;;;;;;;50.40;31.80;;;;;;;;;;5012240;28;20042;-61
2021/12/21 00:13:23;;;;;;;51.50;32.43;;;;;;;;;;5009290;28;20553;-61
2021/12/21 00:18:27;;;;;;;52.53;33.90;;;;;;;;;;5008351;28;20041;-61
2021/12/21 00:21:19;;;;;;;48.20;30.58;;;;;;;;;;5011093;28;20404;-61
2021/12/21 00:23:48;;;;;;;48.50;32.17;;;;;;;;;;5008023;28;20029;-61
2021/12/21 00:26:15;;;;;;;46.33;31.57;;;;;;;;;;5009954;28;20097;-62
2021/12/21 00:31:14;;;;;;;50.30;31.33;;;;;;;;;;5009537;28;20447;-62
2021/12/21 00:33:45;;;;;;;54.77;33.57;;;;;;;;;;5006659;28;20030;-62
2021/12/21 00:36:11;;;;;;;53.37;34.43;;;;;;;;;;5008543;28;20092;-61
2021/12/21 00:38:37;;;;;;;56.03;34.43;;;;;;;;;;5008269;28;20099;-61
2021/12/21 00:41:04;;;;;;;53.83;33.50;;;;;;;;;;4991748;28;20025;-61
2021/12/21 00:43:30;;;;;;;54.97;35.37;;;;;;;;;;5008291;28;20026;-61
2021/12/21 00:45:56;;;;;;;51.07;33.43;;;;;;;;;;5008791;28;20053;-62
2021/12/21 00:48:27;;;;;;;54.00;33.00;;;;;;;;;;5009441;28;20550;-62
2021/12/21 00:50:53;;;;;;;51.53;33.03;;;;;;;;;;5007490;28;20017;-61
2021/12/21 00:53:19;;;;;;;51.23;33.97;;;;;;;;;;5010936;28;20029;-62
2021/12/21 00:55:45;;;;;;;46.90;32.80;;;;;;;;;;5012496;28;20434;-61
2021/12/21 00:58:12;;;;;;;50.63;32.30;;;;;;;;;;5011275;28;20044;-61
2021/12/21 01:00:39;;;;;;;47.40;32.10;;;;;;;;;;5013491;28;20022;-61
2021/12/21 01:03:10;;;;;;;46.67;31.77;;;;;;;;;;5014487;28;20125;-62
2021/12/21 01:06:07;;;;;;;49.43;32.93;;;;;;;;;;5014560;28;20971;-61
2021/12/21 01:08:27;;;;;;;48.57;30.77;;;;;;;;;;5013937;28;20407;-61
2021/12/21 01:21:59;;;;;;;43.13;29.38;;;;;;;;;;5010819;28;20095;-62
2021/12/21 01:32:15;;;;;;;39.13;27.43;;;;;;;;;;5014913;28;20034;-61
2021/12/21 01:34:56;;;;;;;40.50;28.53;;;;;;;;;;5012558;28;20048;-61
2021/12/21 01:40:44;;;;;;;40.83;27.93;;;;;;;;;;4977761;28;20026;-61
2021/12/21 01:51:07;;;;;;;44.70;27.97;;;;;;;;;;5014998;28;20069;-61
2021/12/21 01:53:34;;;;;;;43.03;27.83;;;;;;;;;;5010167;28;20041;-61
2021/12/21 01:56:01;;;;;;;46.30;28.03;;;;;;;;;;5011955;28;20378;-61
2021/12/21 01:58:27;;;;;;;46.57;29.60;;;;;;;;;;5010664;28;20034;-61
2021/12/21 02:00:54;;;;;;;44.60;28.87;;;;;;;;;;5012627;28;20084;-61
2021/12/21 02:03:20;;;;;;;43.17;27.40;;;;;;;;;;5010794;28;20040;-61
2021/12/21 02:05:46;;;;;;;49.23;29.80;;;;;;;;;;5013396;28;20053;-61
2021/12/21 02:08:12;;;;;;;44.70;29.43;;;;;;;;;;5012577;28;20549;-61
2021/12/21 02:10:38;;;;;;;49.63;29.87;;;;;;;;;;5010054;28;20061;-61
2021/12/21 02:13:04;;;;;;;47.97;30.87;;;;;;;;;;5012280;28;20056;-62
2021/12/21 02:15:30;;;;;;;51.20;30.37;;;;;;;;;;5013814;28;20475;-61
2021/12/21 02:20:51;;;;;;;48.92;31.80;;;;;;;;;;5007252;28;20076;-62
2021/12/21 02:23:25;;;;;;;52.23;31.33;;;;;;;;;;5010538;28;20022;-62
2021/12/21 02:26:05;;;;;;;53.03;31.37;;;;;;;;;;5009589;28;20518;-61
2021/12/21 02:30:57;;;;;;;49.97;31.73;;;;;;;;;;5010470;28;20108;-61
2021/12/21 02:33:25;;;;;;;51.63;30.90;;;;;;;;;;5013056;28;20021;-61
2021/12/21 02:35:51;;;;;;;53.53;30.70;;;;;;;;;;4994522;28;20026;-61
2021/12/21 02:38:17;;;;;;;53.67;30.70;;;;;;;;;;4993974;28;20021;-62
2021/12/21 02:40:44;;;;;;;51.03;31.47;;;;;;;;;;5012758;28;20073;-62
2021/12/21 02:43:10;;;;;;;52.43;31.40;;;;;;;;;;5013347;28;20041;-61
2021/12/21 02:45:38;;;;;;;49.40;31.03;;;;;;;;;;5010414;28;20087;-61
2021/12/21 02:48:04;;;;;;;55.13;32.93;;;;;;;;;;4995071;28;20045;-61
2021/12/21 02:50:31;;;;;;;56.13;32.87;;;;;;;;;;5006729;28;20025;-62
2021/12/21 02:52:59;;;;;;;55.13;32.10;;;;;;;;;;5011159;28;20387;-62
2021/12/21 02:55:26;;;;;;;57.17;31.83;;;;;;;;;;4992657;28;20484;-62
2021/12/21 02:57:52;;;;;;;53.40;31.00;;;;;;;;;;5009670;28;20091;-62
2021/12/21 03:00:18;;;;;;;55.73;32.53;;;;;;;;;;5012373;28;20016;-62
2021/12/21 03:02:44;;;;;;;51.67;31.63;;;;;;;;;;5009026;28;20034;-61
2021/12/21 03:05:10;;;;;;;54.13;32.20;;;;;;;;;;5006804;28;20018;-62
2021/12/21 03:10:09;;;;;;;60.77;33.03;;;;;;;;;;5013032;28;20109;-61
2021/12/21 03:15:20;;;;;;;58.60;32.05;;;;;;;;;;5011932;28;20379;-62
2021/12/21 03:17:46;;;;;;;52.27;31.80;;;;;;;;;;5009394;28;20108;-61
2021/12/21 03:20:13;;;;;;;50.90;31.80;;;;;;;;;;5008683;28;20025;-62
2021/12/21 03:22:39;;;;;;;49.57;29.83;;;;;;;;;;5011311;28;20487;-61
2021/12/21 03:25:05;;;;;;;45.50;28.10;;;;;;;;;;5012025;28;20045;-61
2021/12/21 03:27:31;;;;;;;48.10;29.23;;;;;;;;;;5007058;28;20044;-61
2021/12/21 03:29:58;;;;;;;43.73;28.27;;;;;;;;;;5011322;28;20022;-61
2021/12/21 03:32:24;;;;;;;68.60;45.53;;;;;;;;;;5013182;28;20022;-62
2021/12/21 03:34:50;;;;;;;121.43;87.93;;;;;;;;;;5010572;28;20099;-61
2021/12/21 03:37:16;;;;;;;119.33;85.00;;;;;;;;;;5010330;28;20494;-60
2021/12/21 03:39:44;;;;;;;109.50;77.50;;;;;;;;;;5006904;28;20105;-61
2021/12/21 03:42:10;;;;;;;88.40;60.93;;;;;;;;;;5011312;28;20033;-61
2021/12/21 03:44:37;;;;;;;79.70;55.83;;;;;;;;;;5010593;28;20392;-62
2021/12/21 03:47:03;;;;;;;67.03;46.83;;;;;;;;;;5007225;28;20030;-62
2021/12/21 03:52:01;;;;;;;50.57;34.37;;;;;;;;;;5011289;28;20037;-62
2021/12/21 03:54:27;;;;;;;46.57;31.73;;;;;;;;;;5008801;28;20034;-62
2021/12/21 03:56:54;;;;;;;44.87;29.87;;;;;;;;;;5011736;28;20084;-61
2021/12/21 03:59:20;;;;;;;39.40;26.97;;;;;;;;;;5008522;28;20106;-61
2021/12/21 04:01:47;;;;;;;38.07;26.33;;;;;;;;;;5010513;28;20025;-61
2021/12/21 04:04:13;;;;;;;36.57;25.43;;;;;;;;;;5009387;28;20026;-61
2021/12/21 04:06:39;;;;;;;37.73;24.27;;;;;;;;;;4989780;28;20406;-62
2021/12/21 04:09:07;;;;;;;37.87;23.37;;;;;;;;;;5008068;28;20034;-61
2021/12/21 04:11:33;;;;;;;35.27;23.57;;;;;;;;;;5010516;28;20042;-61
2021/12/21 04:14:00;;;;;;;35.13;23.20;;;;;;;;;;5010121;28;20113;-61
2021/12/21 04:16:27;;;;;;;37.53;25.50;;;;;;;;;;5011081;28;20089;-61
2021/12/21 04:18:53;;;;;;;40.27;24.97;;;;;;;;;;5009103;28;20033;-61
2021/12/21 04:21:19;;;;;;;35.17;24.27;;;;;;;;;;4993889;28;20103;-61
2021/12/21 04:23:45;;;;;;;39.33;24.20;;;;;;;;;;5011585;28;20030;-61
2021/12/21 04:26:12;;;;;;;43.87;26.80;;;;;;;;;;5010308;28;20029;-62
2021/12/21 04:28:38;;;;;;;36.80;24.23;;;;;;;;;;5009690;28;20034;-61
2021/12/21 04:31:05;;;;;;;40.30;25.13;;;;;;;;;;5013319;28;20058;-62
2021/12/21 04:33:31;;;;;;;43.00;26.77;;;;;;;;;;5012288;28;20041;-61
2021/12/21 04:35:58;;;;;;;41.60;26.10;;;;;;;;;;4994188;28;20088;-61
2021/12/21 04:38:29;;;;;;;49.10;27.60;;;;;;;;;;5010839;28;20084;-61
2021/12/21 04:41:02;;;;;;;44.87;27.30;;;;;;;;;;5009141;28;20136;-61
2021/12/21 04:43:28;;;;;;;43.30;25.87;;;;;;;;;;5014279;28;20045;-60
2021/12/21 04:45:54;;;;;;;41.47;26.57;;;;;;;;;;5014497;28;20509;-62
2021/12/21 04:48:20;;;;;;;46.47;28.57;;;;;;;;;;5012727;28;20399;-61
2021/12/21 04:50:46;;;;;;;42.13;25.90;;;;;;;;;;5011713;28;20025;-61
2021/12/21 04:53:37;;;;;;;47.57;26.87;;;;;;;;;;5013689;28;20022;-61
2021/12/21 04:56:03;;;;;;;51.00;28.37;;;;;;;;;;5007183;28;20088;-61
2021/12/21 04:58:30;;;;;;;47.13;29.07;;;;;;;;;;5014073;28;20038;-61
2021/12/21 05:00:56;;;;;;;46.23;29.60;;;;;;;;;;5009467;28;20117;-62
2021/12/21 05:03:22;;;;;;;48.73;30.20;;;;;;;;;;5010445;28;20076;-61
2021/12/21 05:05:48;;;;;;;52.70;31.60;;;;;;;;;;5013892;28;20026;-61
2021/12/21 05:08:26;;;;;;;53.13;29.57;;;;;;;;;;5009541;28;20100;-62
2021/12/21 05:11:00;;;;;;;57.23;32.23;;;;;;;;;;4997461;28;20057;-61
2021/12/21 05:13:28;;;;;;;54.50;29.97;;;;;;;;;;5012994;28;20065;-62
2021/12/21 05:15:54;;;;;;;54.37;31.00;;;;;;;;;;5010701;28;20030;-62
2021/12/21 05:18:20;;;;;;;54.63;31.73;;;;;;;;;;5014382;28;20034;-62
2021/12/21 05:20:46;;;;;;;49.63;28.57;;;;;;;;;;5013604;28;20022;-61
2021/12/21 05:23:13;;;;;;;49.90;29.70;;;;;;;;;;5015578;28;20044;-61
2021/12/21 05:25:39;;;;;;;44.80;27.77;;;;;;;;;;5010535;28;20045;-61
2021/12/21 05:28:06;;;;;;;47.43;29.87;;;;;;;;;;5012472;28;20034;-62
2021/12/21 05:30:34;;;;;;;50.83;29.30;;;;;;;;;;5010688;28;20080;-62
2021/12/21 05:33:00;;;;;;;43.33;27.07;;;;;;;;;;5009709;28;20041;-62
2021/12/21 05:35:26;;;;;;;46.60;27.57;;;;;;;;;;5015118;28;20026;-62
2021/12/21 05:37:57;;;;;;;43.40;26.80;;;;;;;;;;5014050;28;20092;-61
2021/12/21 05:40:30;;;;;;;41.90;25.63;;;;;;;;;;5011385;28;20032;-61
2021/12/21 05:42:56;;;;;;;39.73;25.37;;;;;;;;;;5013723;28;20032;-61
2021/12/21 05:45:22;;;;;;;39.93;26.27;;;;;;;;;;5012322;28;20112;-61
2021/12/21 05:47:48;;;;;;;45.83;28.37;;;;;;;;;;5011875;28;20077;-61
2021/12/21 05:50:17;;;;;;;43.90;26.87;;;;;;;;;;5011560;28;20061;-62
2021/12/21 05:52:43;;;;;;;36.40;24.23;;;;;;;;;;5014458;28;20021;-61
2021/12/21 05:55:10;;;;;;;41.00;27.00;;;;;;;;;;5012339;28;20072;-61
2021/12/21 05:57:37;;;;;;;40.60;25.60;;;;;;;;;;5014602;28;20052;-61
2021/12/21 06:00:07;;;;;;;39.80;25.77;;;;;;;;;;5014190;28;20491;-61
2021/12/21 06:02:33;;;;;;;39.50;25.37;;;;;;;;;;5014908;28;20030;-61
2021/12/21 06:04:59;;;;;;;42.00;26.10;;;;;;;;;;5010076;28;20476;-61
2021/12/21 06:07:25;;;;;;;41.80;25.03;;;;;;;;;;5011846;28;20041;-61
2021/12/21 06:09:51;;;;;;;39.00;25.30;;;;;;;;;;5008014;28;20018;-61
2021/12/21 06:26:10;;;;;;;43.07;25.43;;;;;;;;;;4994280;28;20484;-62
2021/12/21 06:28:36;;;;;;;43.77;26.67;;;;;;;;;;5010731;28;20037;-62
2021/12/21 06:31:03;;;;;;;46.53;26.53;;;;;;;;;;5009360;28;20775;-62
2021/12/21 06:33:30;;;;;;;43.83;27.97;;;;;;;;;;5009639;28;20034;-62
2021/12/21 06:35:56;;;;;;;46.60;27.93;;;;;;;;;;5011223;28;20057;-62
2021/12/21 06:38:22;;;;;;;48.60;27.63;;;;;;;;;;5002941;28;20029;-62
2021/12/21 06:40:48;;;;;;;42.80;27.63;;;;;;;;;;5008965;28;20030;-62
2021/12/21 06:43:16;;;;;;;44.43;27.00;;;;;;;;;;5014235;28;20021;-62
2021/12/21 06:53:38;;;;;;;51.30;26.88;;;;;;;;;;5009346;28;20060;-62
2021/12/21 06:56:06;;;;;;;46.37;26.70;;;;;;;;;;5011403;28;20022;-62
2021/12/21 06:58:32;;;;;;;49.63;26.10;;;;;;;;;;5006932;28;20029;-62
2021/12/21 07:00:59;;;;;;;48.30;25.70;;;;;;;;;;5008203;28;20022;-62
2021/12/21 07:03:25;;;;;;;45.83;25.80;;;;;;;;;;5011693;28;20112;-62
2021/12/21 07:05:51;;;;;;;52.33;27.37;;;;;;;;;;5011838;28;20030;-62
2021/12/21 07:08:23;;;;;;;45.00;26.03;;;;;;;;;;5006743;28;20033;-63
2021/12/21 07:19:04;;;;;;;42.95;25.77;;;;;;;;;;5011273;28;20104;-63
2021/12/21 07:21:30;;;;;;;47.07;26.00;;;;;;;;;;5004793;28;20041;-62
2021/12/21 07:23:56;;;;;;;47.13;26.23;;;;;;;;;;5011735;28;20145;-63
2021/12/21 07:26:23;;;;;;;61.50;28.20;;;;;;;;;;5012534;28;20109;-61
2021/12/21 07:28:49;;;;;;;45.00;26.20;;;;;;;;;;5007600;28;20121;-61
2021/12/21 07:31:15;;;;;;;51.20;27.50;;;;;;;;;;4995486;28;20053;-62
2021/12/21 07:33:41;;;;;;;48.90;27.47;;;;;;;;;;5008218;28;20558;-62
2021/12/21 07:36:07;;;;;;;46.97;26.37;;;;;;;;;;5009227;28;20030;-61
2021/12/21 07:38:33;;;;;;;47.67;27.70;;;;;;;;;;5010951;28;20108;-63
2021/12/21 07:41:00;;;;;;;52.53;28.70;;;;;;;;;;5012405;28;20407;-62
2021/12/21 07:49:46;;;;;;;44.87;26.63;;;;;;;;;;5008013;28;20513;-62
2021/12/21 07:52:13;;;;;;;52.93;28.50;;;;;;;;;;5006135;28;20029;-62
2021/12/21 07:54:39;;;;;;;48.30;28.67;;;;;;;;;;5011350;28;20076;-62
2021/12/21 07:57:09;;;;;;;48.80;28.93;;;;;;;;;;5009376;28;20026;-61
2021/12/21 07:59:36;;;;;;;47.53;29.27;;;;;;;;;;5012344;28;20076;-61
2021/12/21 08:02:02;;;;;;;50.83;29.93;;;;;;;;;;5011450;28;20037;-61
2021/12/21 08:04:28;;;;;;;51.50;30.40;;;;;;;;;;5008670;28;20510;-62
2021/12/21 08:07:04;;;;;;;51.77;30.87;;;;;;;;;;5011154;28;20131;-62
2021/12/21 08:09:37;;;;;;;50.07;28.43;;;;;;;;;;5013254;28;20030;-62
2021/12/21 08:14:42;;;;;;;56.13;29.53;;;;;;;;;;5016298;28;20121;-62
2021/12/21 08:17:08;;;;;;;50.03;29.67;;;;;;;;;;5013768;28;20506;-62
2021/12/21 08:19:34;;;;;;;51.83;30.27;;;;;;;;;;5013822;28;20435;-62
2021/12/21 08:22:00;;;;;;;53.03;30.60;;;;;;;;;;5015838;28;20062;-61
2021/12/21 08:24:26;;;;;;;51.03;31.87;;;;;;;;;;5016178;28;20018;-62
2021/12/21 08:26:52;;;;;;;57.30;32.40;;;;;;;;;;5012999;28;20030;-62
2021/12/21 08:29:18;;;;;;;52.67;31.87;;;;;;;;;;5014411;28;20106;-61
2021/12/21 08:31:44;;;;;;;51.47;31.07;;;;;;;;;;5014170;28;20112;-62
2021/12/21 08:34:11;;;;;;;50.93;31.00;;;;;;;;;;5005936;28;20034;-62
2021/12/21 08:36:37;;;;;;;53.93;32.43;;;;;;;;;;5010524;28;20104;-61
2021/12/21 08:39:04;;;;;;;54.70;32.37;;;;;;;;;;5011074;28;20534;-61
2021/12/21 08:41:32;;;;;;;52.07;32.07;;;;;;;;;;5011314;28;20109;-61
2021/12/21 08:44:00;;;;;;;52.47;31.07;;;;;;;;;;5010713;28;20022;-62
2021/12/21 08:46:26;;;;;;;49.60;31.87;;;;;;;;;;5014258;28;20494;-62
2021/12/21 08:48:52;;;;;;;55.43;32.70;;;;;;;;;;5007507;28;20034;-62
2021/12/21 08:51:18;;;;;;;59.53;32.63;;;;;;;;;;5010506;28;20073;-62
2021/12/21 08:53:44;;;;;;;50.43;31.17;;;;;;;;;;4991966;28;20064;-62
2021/12/21 08:56:10;;;;;;;56.77;32.87;;;;;;;;;;5008198;28;20022;-62
2021/12/21 08:58:36;;;;;;;54.57;31.87;;;;;;;;;;5014581;28;20040;-62
2021/12/21 09:01:03;;;;;;;57.07;30.93;;;;;;;;;;5014058;28;20462;-62
2021/12/21 09:03:29;;;;;;;54.60;31.70;;;;;;;;;;4993789;28;20031;-62
2021/12/21 09:05:55;;;;;;;56.60;31.57;;;;;;;;;;5014238;28;20033;-62
2021/12/21 09:08:21;;;;;;;55.17;32.13;;;;;;;;;;5013782;28;20112;-62
2021/12/21 09:10:47;;;;;;;54.63;33.23;;;;;;;;;;5010781;28;20022;-62
2021/12/21 09:13:13;;;;;;;51.70;30.30;;;;;;;;;;5010548;28;20050;-62
2021/12/21 09:15:39;;;;;;;50.67;30.50;;;;;;;;;;5010521;28;20365;-61
2021/12/21 09:18:06;;;;;;;56.10;32.87;;;;;;;;;;5010491;28;20022;-62
2021/12/21 09:20:33;;;;;;;55.60;33.43;;;;;;;;;;5013517;28;20079;-62
2021/12/21 09:22:59;;;;;;;53.93;31.53;;;;;;;;;;5004677;28;20029;-62
2021/12/21 09:25:26;;;;;;;52.70;31.33;;;;;;;;;;5014668;28;20026;-62
2021/12/21 09:27:52;;;;;;;53.23;31.40;;;;;;;;;;5011845;28;20554;-62
2021/12/21 09:30:20;;;;;;;48.67;31.37;;;;;;;;;;5012548;28;20555;-61
2021/12/21 09:32:46;;;;;;;53.97;33.20;;;;;;;;;;5013050;28;20157;-61
2021/12/21 09:35:13;;;;;;;54.87;32.50;;;;;;;;;;5010869;28;20041;-62
2021/12/21 09:37:39;;;;;;;50.33;30.13;;;;;;;;;;5012464;28;20045;-61
2021/12/21 09:40:09;;;;;;;54.57;32.00;;;;;;;;;;5013062;28;20030;-62
2021/12/21 09:42:36;;;;;;;54.30;33.10;;;;;;;;;;4993117;28;20026;-62
2021/12/21 09:45:02;;;;;;;53.90;31.63;;;;;;;;;;5010587;28;20540;-62
2021/12/21 09:47:28;;;;;;;57.07;32.17;;;;;;;;;;5011301;28;20034;-62
2021/12/21 09:49:54;;;;;;;51.17;31.70;;;;;;;;;;5011734;28;20037;-61
2021/12/21 09:52:29;;;;;;;54.57;32.07;;;;;;;;;;5010062;28;20467;-62
2021/12/21 09:54:55;;;;;;;61.33;33.35;;;;;;;;;;5012805;28;20080;-61
2021/12/21 09:57:21;;;;;;;70.57;35.00;;;;;;;;;;5012694;28;20132;-62
2021/12/21 09:59:49;;;;;;;62.67;34.87;;;;;;;;;;5011382;28;20029;-62
2021/12/21 10:02:18;;;;;;;53.80;32.47;;;;;;;;;;5009989;28;20057;-62
2021/12/21 10:04:47;;;;;;;54.20;31.97;;;;;;;;;;5009270;28;20025;-62
2021/12/21 10:07:15;;;;;;;56.87;33.50;;;;;;;;;;5011526;28;20129;-62
2021/12/21 10:09:43;;;;;;;53.33;32.37;;;;;;;;;;5005788;28;20117;-62
2021/12/21 10:12:13;;;;;;;55.17;34.10;;;;;;;;;;5008981;28;20318;-62
2021/12/21 10:14:39;;;;;;;61.50;34.73;;;;;;;;;;5011208;28;20033;-62
2021/12/21 10:17:06;;;;;;;59.50;35.37;;;;;;;;;;4996552;28;20021;-62
2021/12/21 10:19:32;;;;;;;57.67;32.97;;;;;;;;;;5012883;28;20034;-62
2021/12/21 10:22:09;;;;;;;65.00;36.20;;;;;;;;;;4995731;28;20117;-62
2021/12/21 10:24:42;;;;;;;57.07;34.10;;;;;;;;;;5008075;28;20076;-62
2021/12/21 10:27:10;;;;;;;52.90;32.40;;;;;;;;;;5011220;28;20037;-64
2021/12/21 10:29:44;;;;;;;61.10;35.87;;;;;;;;;;5010398;28;20026;-62
2021/12/21 10:32:18;;;;;;;58.27;35.63;;;;;;;;;;5010546;28;20026;-62
2021/12/21 10:34:44;;;;;;;;;;;;;;;;;;5006704;28;20060;-62
2021/12/21 10:37:20;;;;;;;62.33;36.10;;;;;;;;;;5008489;28;20335;-62
2021/12/21 10:39:46;;;;;;;56.73;35.60;;;;;;;;;;5010839;28;20072;-62
2021/12/21 10:42:12;;;;;;;50.10;33.40;;;;;;;;;;5010214;28;20026;-62
2021/12/21 10:44:38;;;;;;;57.00;35.87;;;;;;;;;;5008639;28;20053;-62
2021/12/21 10:47:05;;;;;;;61.63;38.50;;;;;;;;;;5009575;28;20034;-62
2021/12/21 10:49:31;;;;;;;54.67;35.03;;;;;;;;;;5010111;28;20014;-61
2021/12/21 10:52:01;;;;;;;56.03;35.13;;;;;;;;;;5000895;28;20373;-62
2021/12/21 10:54:28;;;;;;;55.30;35.70;;;;;;;;;;5007444;28;20479;-62
2021/12/21 10:56:57;;;;;;;55.40;35.57;;;;;;;;;;5005708;28;20476;-62
2021/12/21 10:59:30;;;;;;;64.03;37.87;;;;;;;;;;5010810;28;20037;-62
2021/12/21 11:02:10;;;;;;;63.73;38.17;;;;;;;;;;5009428;28;20073;-62
2021/12/21 11:04:41;;;;;;;53.37;35.47;;;;;;;;;;5010842;28;20033;-62
2021/12/21 11:08:06;;;;;;;60.10;36.57;;;;;;;;;;5011927;28;20049;-61
2021/12/21 11:10:15;;;;;;;61.13;36.13;;;;;;;;;;5001968;28;20080;-61
2021/12/21 11:12:52;;;;;;;58.57;36.50;;;;;;;;;;5007395;28;20426;-62
2021/12/21 11:15:29;;;;;;;54.60;36.37;;;;;;;;;;5007500;28;20121;-62
2021/12/21 11:17:56;;;;;;;58.20;35.40;;;;;;;;;;5012064;28;20061;-62
2021/12/21 11:20:22;;;;;;;52.37;34.47;;;;;;;;;;5010635;28;20475;-62
2021/12/21 11:22:48;;;;;;;58.00;37.03;;;;;;;;;;4993303;28;20049;-61
2021/12/21 11:25:14;;;;;;;59.87;34.03;;;;;;;;;;5011400;28;20057;-61
2021/12/21 11:27:41;;;;;;;52.83;35.33;;;;;;;;;;5009044;28;20045;-61
2021/12/21 11:30:09;;;;;;;53.37;34.03;;;;;;;;;;5009554;28;20394;-62
2021/12/21 11:32:39;;;;;;;57.23;34.93;;;;;;;;;;5012819;28;20056;-62
2021/12/21 11:37:42;;;;;;;56.70;35.20;;;;;;;;;;5004981;28;20072;-61
2021/12/21 11:40:09;;;;;;;51.43;34.10;;;;;;;;;;4988556;28;20036;-62
2021/12/21 11:42:41;;;;;;;65.10;42.00;;;;;;;;;;5007371;28;20049;-61
2021/12/21 11:45:13;;;;;;;56.03;36.60;;;;;;;;;;5006674;28;20034;-62
2021/12/21 11:47:48;;;;;;;57.73;36.07;;;;;;;;;;5005715;28;20061;-61
2021/12/21 11:50:13;;;;;;;;;;;;;;;;;;5008353;28;20045;-62
2021/12/21 11:53:02;;;;;;;55.70;35.57;;;;;;;;;;5007888;28;20003;-62
2021/12/21 11:55:28;;;;;;;56.97;35.27;;;;;;;;;;5005508;28;20034;-63
2021/12/21 11:57:56;;;;;;;60.17;36.97;;;;;;;;;;5010102;28;20026;-62
2021/12/21 12:00:34;;;;;;;57.37;36.27;;;;;;;;;;5006991;28;20069;-62
2021/12/21 12:03:10;;;;;;;60.70;38.73;;;;;;;;;;5004570;28;20033;-62
2021/12/21 12:05:38;;;;;;;66.57;38.33;;;;;;;;;;5007079;28;20099;-61
2021/12/21 12:08:05;;;;;;;66.60;38.27;;;;;;;;;;4991333;28;20038;-61
2021/12/21 12:10:33;;;;;;;61.67;38.87;;;;;;;;;;5007170;28;20112;-61
2021/12/21 12:13:28;;;;;;;63.50;37.70;;;;;;;;;;5004891;28;20069;-61
2021/12/21 12:15:56;;;;;;;53.85;37.63;;;;;;;;;;4997061;28;20129;-62
2021/12/21 12:18:24;;;;;;;60.57;38.27;;;;;;;;;;5006935;28;20030;-61
2021/12/21 12:20:50;;;;;;;57.00;36.27;;;;;;;;;;4986627;28;20100;-61
2021/12/21 12:23:19;;;;;;;62.17;37.30;;;;;;;;;;5005735;28;20048;-61
2021/12/21 12:25:52;;;;;;;56.17;37.77;;;;;;;;;;5006137;28;20021;-61
2021/12/21 12:28:26;;;;;;;56.23;37.77;;;;;;;;;;5003862;28;20038;-61
2021/12/21 12:30:52;;;;;;;59.93;38.57;;;;;;;;;;5007180;28;20476;-62
2021/12/21 12:33:18;;;;;;;56.93;38.03;;;;;;;;;;5003493;28;20033;-61
2021/12/21 12:35:46;;;;;;;59.27;36.87;;;;;;;;;;5006105;28;20026;-60
2021/12/21 12:38:48;;;;;;;61.83;37.80;;;;;;;;;;5005450;28;20013;-61
2021/12/21 12:41:14;;;;;;;61.07;38.83;;;;;;;;;;5005737;28;20088;-60
2021/12/21 12:43:44;;;;;;;62.43;39.40;;;;;;;;;;5002949;28;20042;-62
2021/12/21 12:46:12;;;;;;;63.10;39.67;;;;;;;;;;5007221;28;20056;-61
2021/12/21 12:48:49;;;;;;;60.90;40.07;;;;;;;;;;4999048;28;20454;-62
2021/12/21 12:51:36;;;;;;;68.63;39.00;;;;;;;;;;5004937;28;20076;-62
2021/12/21 12:54:13;;;;;;;63.83;40.00;;;;;;;;;;5005665;28;20026;-61
2021/12/21 12:56:40;;;;;;;57.63;37.97;;;;;;;;;;5006770;28;20129;-61
2021/12/21 12:59:06;;;;;;;63.37;40.53;;;;;;;;;;5004550;28;20028;-61
2021/12/21 13:01:33;;;;;;;61.63;40.27;;;;;;;;;;5002726;28;20531;-61
2021/12/21 13:04:01;;;;;;;61.47;39.13;;;;;;;;;;5008134;28;20030;-61
2021/12/21 13:06:29;;;;;;;58.10;36.97;;;;;;;;;;5014498;28;20025;-61
2021/12/21 13:08:55;;;;;;;67.70;38.87;;;;;;;;;;5013301;28;20038;-61
2021/12/21 13:11:22;;;;;;;64.47;39.33;;;;;;;;;;4993491;28;20044;-61
2021/12/21 13:13:49;;;;;;;64.57;38.63;;;;;;;;;;5012505;28;20026;-62
2021/12/21 13:16:20;;;;;;;55.73;37.23;;;;;;;;;;5012561;28;20030;-62
2021/12/21 13:18:46;;;;;;;63.63;38.43;;;;;;;;;;5012235;28;20025;-61
2021/12/21 13:21:18;;;;;;;62.37;37.60;;;;;;;;;;4993248;28;20033;-61
2021/12/21 13:23:44;;;;;;;58.23;36.90;;;;;;;;;;5012807;28;20030;-61
2021/12/21 13:26:10;;;;;;;59.70;37.70;;;;;;;;;;5012305;28;20034;-61
2021/12/21 13:28:44;;;;;;;61.33;38.60;;;;;;;;;;5013311;28;20578;-61
2021/12/21 13:31:10;;;;;;;60.08;37.88;;;;;;;;;;5011922;28;20029;-61
2021/12/21 13:33:39;;;;;;;56.33;37.13;;;;;;;;;;5012709;28;20056;-62
2021/12/21 13:36:06;;;;;;;60.00;37.90;;;;;;;;;;5011138;28;20368;-61
2021/12/21 13:38:32;;;;;;;62.13;36.97;;;;;;;;;;5012563;28;20026;-61
2021/12/21 13:41:01;;;;;;;61.30;39.40;;;;;;;;;;5008373;28;20032;-62
2021/12/21 13:43:27;;;;;;;59.17;37.57;;;;;;;;;;5011305;28;20113;-62
2021/12/21 13:46:12;;;;;;;62.23;38.00;;;;;;;;;;5008734;28;20069;-61
2021/12/21 13:48:38;;;;;;;63.50;38.77;;;;;;;;;;5010866;28;20034;-62
2021/12/21 13:51:08;;;;;;;56.63;36.43;;;;;;;;;;4990282;28;20034;-61
2021/12/21 13:53:40;;;;;;;64.33;39.43;;;;;;;;;;5011953;28;20116;-62
2021/12/21 13:56:10;;;;;;;56.77;37.53;;;;;;;;;;5006234;28;20040;-62
2021/12/21 13:58:36;;;;;;;69.50;39.67;;;;;;;;;;5008227;28;20037;-62
2021/12/21 14:01:02;;;;;;;55.07;37.47;;;;;;;;;;4995377;28;20053;-63
2021/12/21 14:03:34;;;;;;;65.27;39.90;;;;;;;;;;5009055;28;20029;-62
2021/12/21 14:06:09;;;;;;;63.43;41.47;;;;;;;;;;5006402;28;20033;-63
2021/12/21 14:08:35;;;;;;;158.03;52.20;;;;;;;;;;5008386;28;20034;-62
2021/12/21 14:11:04;;;;;;;83.80;41.67;;;;;;;;;;5008953;28;20361;-64
2021/12/21 14:13:36;;;;;;;64.03;39.43;;;;;;;;;;5009467;28;20133;-64
2021/12/21 14:16:12;;;;;;;63.77;40.10;;;;;;;;;;5009496;28;20027;-65
2021/12/21 14:18:41;;;;;;;57.87;40.60;;;;;;;;;;5007847;28;20395;-64
2021/12/21 14:21:09;;;;;;;67.03;41.30;;;;;;;;;;5008892;28;20403;-65
2021/12/21 14:23:36;;;;;;;67.23;42.23;;;;;;;;;;5008771;28;20038;-63
2021/12/21 14:26:10;;;;;;;64.03;41.87;;;;;;;;;;5013631;28;20043;-63
2021/12/21 14:28:48;;;;;;;66.53;41.80;;;;;;;;;;5008233;28;20125;-64
2021/12/21 14:31:14;;;;;;;62.60;40.57;;;;;;;;;;5007579;28;20125;-63
2021/12/21 14:33:48;;;;;;;61.70;40.57;;;;;;;;;;4992723;28;20404;-63
2021/12/21 14:36:17;;;;;;;65.17;41.20;;;;;;;;;;5004445;28;20459;-64
2021/12/21 14:39:09;;;;;;;60.20;40.83;;;;;;;;;;5004955;28;20042;-63
2021/12/21 14:41:43;;;;;;;64.93;41.17;;;;;;;;;;5006623;28;20037;-64
2021/12/21 14:44:10;;;;;;;59.53;39.57;;;;;;;;;;5009281;28;20033;-65
2021/12/21 14:46:38;;;;;;;62.00;40.17;;;;;;;;;;5007980;28;20042;-64
2021/12/21 14:49:06;;;;;;;66.87;41.93;;;;;;;;;;5001520;28;20107;-64
2021/12/21 14:51:38;;;;;;;64.43;39.83;;;;;;;;;;5006241;28;20108;-64
2021/12/21 14:54:08;;;;;;;72.13;39.73;;;;;;;;;;5003991;28;20512;-63
2021/12/21 14:56:36;;;;;;;62.17;39.40;;;;;;;;;;5013603;28;20025;-63
2021/12/21 14:59:06;;;;;;;59.83;41.77;;;;;;;;;;5005710;28;20805;-64
2021/12/21 15:01:36;;;;;;;66.23;43.67;;;;;;;;;;5008616;28;20030;-63
2021/12/21 15:04:14;;;;;;;69.57;42.17;;;;;;;;;;5005484;28;20096;-63
2021/12/21 15:06:41;;;;;;;66.53;41.77;;;;;;;;;;5004668;28;20034;-63
2021/12/21 15:09:07;;;;;;;62.57;41.37;;;;;;;;;;5004147;28;20073;-64
2021/12/21 15:11:33;;;;;;;72.93;43.10;;;;;;;;;;5008692;28;20054;-64
2021/12/21 15:13:59;;;;;;;71.07;43.80;;;;;;;;;;5007472;28;20117;-64
2021/12/21 15:16:25;;;;;;;64.90;41.87;;;;;;;;;;5004463;28;20034;-64
2021/12/21 15:18:51;;;;;;;68.43;43.33;;;;;;;;;;5009730;28;20033;-64
2021/12/21 15:21:17;;;;;;;70.73;43.07;;;;;;;;;;5011776;28;20038;-64
2021/12/21 15:23:43;;;;;;;70.53;41.80;;;;;;;;;;4990070;28;20042;-65
2021/12/21 15:35:20;;;;;;;71.93;43.53;;;;;;;;;;5003577;28;20028;-65
2021/12/21 15:37:48;;;;;;;73.13;44.83;;;;;;;;;;5008937;28;20022;-65
2021/12/21 15:40:15;;;;;;;72.87;45.83;;;;;;;;;;5010900;28;20026;-65
2021/12/21 15:42:42;;;;;;;75.87;46.00;;;;;;;;;;5010551;28;20030;-65
2021/12/21 15:45:08;;;;;;;69.43;43.67;;;;;;;;;;5005298;28;20064;-65
2021/12/21 15:47:35;;;;;;;74.93;45.77;;;;;;;;;;5007351;28;20037;-65
2021/12/21 15:50:01;;;;;;;66.00;43.33;;;;;;;;;;5012177;28;20505;-65
2021/12/21 15:52:28;;;;;;;78.80;44.23;;;;;;;;;;5009231;28;20034;-65
2021/12/21 15:54:54;;;;;;;73.37;45.50;;;;;;;;;;5009035;28;20453;-65
2021/12/21 15:57:21;;;;;;;65.93;42.20;;;;;;;;;;5008735;28;20476;-65
2021/12/21 15:59:48;;;;;;;68.83;41.10;;;;;;;;;;5010114;28;20034;-65
2021/12/21 16:02:18;;;;;;;66.97;42.30;;;;;;;;;;5008773;28;20029;-65
2021/12/21 16:04:48;;;;;;;64.20;41.27;;;;;;;;;;5007941;28;20072;-65